Terminal Aerodrome Forecast
Issued by NWS Nashville, TN

Home | Current Version | Previous Version | Text Only | Print | Product List | Glossary On
Versions: 1 2 3 4 5 6 7 8 9 10 11 12 13 14 15 16 17 18 19 20 21 22 23 24 25 26 27 28 29 30 31 32 33 34 35 36 37 38 39
016
FTUS44 KOHX 171137
TAFCSV
TAF
KCSV 171137Z 1712/1812 19010G18KT 6SM -SHRA OVC035 WS020/20045KT
     FM171500 21011G17KT 3SM -SHRA OVC015
     FM172100 22011KT 2SM -SHRA OVC007
     FM180100 28010KT 3SM -SHRA BR OVC003=

USA.gov is the U.S. government's official web portal to all federal, state and local government web resources and services.